CheckWX is a tool to help pilots better visualize weather data.  It is not intended as a substitute for an official pre-flight weather briefing.

21:31:41 UTC

ESSP METAR
Norrköping Airport
Norrköping, Sweden
Current

12 mins ago

ESSP 232120Z AUTO 16002KT 9999 NCD 10/08 Q1012
Observed
May-23 @ 21:20 UTC
Wind
  • 160° at 2 KTS
Visibility
10,000+ meters
Flight Rules
VFR
Cloud Levels
  • Clear skies
Temperature
10°C / 50°F
Dewpoint
C / 46°F
Humidity
88%
Altimeter
29.88" Hg
Pressure
1011.92 hPa
Previous

42 mins ago

ESSP 232050Z AUTO 13002KT 9999 NCD 10/08 Q1012
Observed
May-23 @ 20:50 UTC
Wind
  • 130° at 2 KTS
Visibility
10,000+ meters
Flight Rules
VFR
Cloud Levels
  • Clear skies
Temperature
10°C / 50°F
Dewpoint
C / 46°F
Humidity
88%
Altimeter
29.88" Hg
Pressure
1011.92 hPa
Previous

1 hour ago

ESSP 232020Z AUTO 10002KT 9999 NCD 11/08 Q1012
Observed
May-23 @ 20:20 UTC
Wind
  • 100° at 2 KTS
Visibility
10,000+ meters
Flight Rules
VFR
Cloud Levels
  • Clear skies
Temperature
11°C / 52°F
Dewpoint
C / 46°F
Humidity
82%
Altimeter
29.88" Hg
Pressure
1011.92 hPa